sensor_id;sensor_type;location;lat;lon;timestamp;pressure;altitude;pressure_sealevel;temperature;humidity
68489;BME280;55481;48.764;8.936;2022-10-31T00:01:36;97490;;;9.8;75.5
68489;BME280;55481;48.764;8.936;2022-10-31T00:04:06;97490;;;9.8;75.5
68489;BME280;55481;48.764;8.936;2022-10-31T00:06:43;97490;;;9.7;76
68489;BME280;55481;48.764;8.936;2022-10-31T00:11:44;97490;;;9.7;76
68489;BME280;55481;48.764;8.936;2022-10-31T00:14:16;97490;;;9.7;75.5
68489;BME280;55481;48.764;8.936;2022-10-31T00:16:46;97490;;;9.7;76
68489;BME280;55481;48.764;8.936;2022-10-31T00:26:43;97490;;;9.7;75.5
68489;BME280;55481;48.764;8.936;2022-10-31T00:29:15;97490;;;9.7;75.5
68489;BME280;55481;48.764;8.936;2022-10-31T00:31:44;97490;;;9.7;76
68489;BME280;55481;48.764;8.936;2022-10-31T00:34:15;97490;;;9.6;75.5
68489;BME280;55481;48.764;8.936;2022-10-31T00:36:46;97500;;;9.5;76
68489;BME280;55481;48.764;8.936;2022-10-31T00:44:18;97490;;;9.4;76
68489;BME280;55481;48.764;8.936;2022-10-31T00:47:09;97500;;;9.3;76.5
68489;BME280;55481;48.764;8.936;2022-10-31T00:49:46;97500;;;9.3;76.5
68489;BME280;55481;48.764;8.936;2022-10-31T00:52:03;97490;;;9.5;76
68489;BME280;55481;48.764;8.936;2022-10-31T00:56:57;97490;;;9.7;75.5
68489;BME280;55481;48.764;8.936;2022-10-31T00:59:28;97480;;;9.4;76
68489;BME280;55481;48.764;8.936;2022-10-31T01:01:59;97490;;;9.4;76
68489;BME280;55481;48.764;8.936;2022-10-31T01:04:30;97490;;;9.6;76
68489;BME280;55481;48.764;8.936;2022-10-31T01:09:25;97490;;;9.6;75.5
68489;BME280;55481;48.764;8.936;2022-10-31T01:11:56;97490;;;9.7;75.5
68489;BME280;55481;48.764;8.936;2022-10-31T01:14:27;97490;;;9.7;75
68489;BME280;55481;48.764;8.936;2022-10-31T01:21:59;97480;;;9.2;76.5
68489;BME280;55481;48.764;8.936;2022-10-31T01:24:30;97490;;;9.1;76.5
68489;BME280;55481;48.764;8.936;2022-10-31T01:29:45;97480;;;9.4;76
68489;BME280;55481;48.764;8.936;2022-10-31T01:32:14;97480;;;9.4;75.5
68489;BME280;55481;48.764;8.936;2022-10-31T01:37:08;97480;;;9.2;76.5
68489;BME280;55481;48.764;8.936;2022-10-31T01:39:39;97480;;;9.4;76
68489;BME280;55481;48.764;8.936;2022-10-31T01:42:12;97480;;;9.4;76
68489;BME280;55481;48.764;8.936;2022-10-31T01:44:48;97470;;;9.5;75.5
68489;BME280;55481;48.764;8.936;2022-10-31T01:47:14;97470;;;9.5;75.5
68489;BME280;55481;48.764;8.936;2022-10-31T01:49:52;97470;;;9.3;76
68489;BME280;55481;48.764;8.936;2022-10-31T01:54:47;97470;;;9.2;76.5
68489;BME280;55481;48.764;8.936;2022-10-31T01:57:16;97470;;;9.2;76
68489;BME280;55481;48.764;8.936;2022-10-31T01:59:47;97470;;;9.2;76.5
68489;BME280;55481;48.764;8.936;2022-10-31T02:04:49;97480;;;9.1;76.5
68489;BME280;55481;48.764;8.936;2022-10-31T02:07:21;97480;;;8.9;76.5
68489;BME280;55481;48.764;8.936;2022-10-31T02:09:51;97480;;;8.9;76.5
68489;BME280;55481;48.764;8.936;2022-10-31T02:12:21;97480;;;8.9;77
68489;BME280;55481;48.764;8.936;2022-10-31T02:14:52;97480;;;8.8;77
68489;BME280;55481;48.764;8.936;2022-10-31T02:17:30;97470;;;8.8;77
68489;BME280;55481;48.764;8.936;2022-10-31T02:20:09;97470;;;8.8;77
68489;BME280;55481;48.764;8.936;2022-10-31T02:22:27;97470;;;8.9;76.5
68489;BME280;55481;48.764;8.936;2022-10-31T02:25:01;97470;;;8.9;76.5
68489;BME280;55481;48.764;8.936;2022-10-31T02:30:02;97470;;;9;76.5
68489;BME280;55481;48.764;8.936;2022-10-31T02:32:40;97470;;;8.8;76.5
68489;BME280;55481;48.764;8.936;2022-10-31T02:37:34;97470;;;9.1;76
68489;BME280;55481;48.764;8.936;2022-10-31T02:40:05;97470;;;9;76
68489;BME280;55481;48.764;8.936;2022-10-31T02:42:34;97470;;;9;76.5
68489;BME280;55481;48.764;8.936;2022-10-31T02:52:42;97460;;;9.1;76
68489;BME280;55481;48.764;8.936;2022-10-31T02:55:44;97460;;;9.2;76
68489;BME280;55481;48.764;8.936;2022-10-31T03:00:13;97460;;;9.1;76
68489;BME280;55481;48.764;8.936;2022-10-31T03:02:40;97460;;;9.3;76
68489;BME280;55481;48.764;8.936;2022-10-31T03:06:14;97460;;;9.3;75.5
68489;BME280;55481;48.764;8.936;2022-10-31T03:12:38;97460;;;8.9;76.5
68489;BME280;55481;48.764;8.936;2022-10-31T03:17:36;97460;;;8.8;77
68489;BME280;55481;48.764;8.936;2022-10-31T03:20:06;97460;;;8.8;77
68489;BME280;55481;48.764;8.936;2022-10-31T03:22:37;97460;;;8.8;77
68489;BME280;55481;48.764;8.936;2022-10-31T03:27:45;97460;;;8.7;77
68489;BME280;55481;48.764;8.936;2022-10-31T03:30:16;97470;;;8.7;77
68489;BME280;55481;48.764;8.936;2022-10-31T03:32:49;97460;;;8.6;77
68489;BME280;55481;48.764;8.936;2022-10-31T03:35:18;97460;;;8.7;77
68489;BME280;55481;48.764;8.936;2022-10-31T03:37:55;97460;;;8.6;77
68489;BME280;55481;48.764;8.936;2022-10-31T03:40:25;97450;;;8.7;76.5
68489;BME280;55481;48.764;8.936;2022-10-31T03:42:52;97450;;;8.6;77
68489;BME280;55481;48.764;8.936;2022-10-31T03:45:21;97450;;;8.6;77
68489;BME280;55481;48.764;8.936;2022-10-31T03:47:51;97450;;;8.7;77
68489;BME280;55481;48.764;8.936;2022-10-31T03:50:23;97450;;;8.9;76.5
68489;BME280;55481;48.764;8.936;2022-10-31T03:52:57;97460;;;9;76
68489;BME280;55481;48.764;8.936;2022-10-31T03:55:26;97460;;;9;76
68489;BME280;55481;48.764;8.936;2022-10-31T03:57:57;97450;;;8.8;76.5
68489;BME280;55481;48.764;8.936;2022-10-31T04:00:25;97450;;;8.7;77
68489;BME280;55481;48.764;8.936;2022-10-31T04:02:59;97450;;;8.9;76.5
68489;BME280;55481;48.764;8.936;2022-10-31T04:05:27;97450;;;8.8;76.5
68489;BME280;55481;48.764;8.936;2022-10-31T04:08:05;97450;;;8.8;76.5
68489;BME280;55481;48.764;8.936;2022-10-31T04:15:51;97450;;;9;76.5
68489;BME280;55481;48.764;8.936;2022-10-31T04:18:08;97450;;;9;76
68489;BME280;55481;48.764;8.936;2022-10-31T04:23:03;97440;;;9;76
68489;BME280;55481;48.764;8.936;2022-10-31T04:25:33;97440;;;8.8;76.5
68489;BME280;55481;48.764;8.936;2022-10-31T04:28:04;97430;;;8.8;76.5
68489;BME280;55481;48.764;8.936;2022-10-31T04:30:28;97440;;;8.8;76.5
68489;BME280;55481;48.764;8.936;2022-10-31T04:38:00;97430;;;8.6;77
68489;BME280;55481;48.764;8.936;2022-10-31T04:40:31;97430;;;8.6;77
68489;BME280;55481;48.764;8.936;2022-10-31T04:43:02;97430;;;8.7;77
68489;BME280;55481;48.764;8.936;2022-10-31T04:48:03;97430;;;8.5;77.5
68489;BME280;55481;48.764;8.936;2022-10-31T04:50:34;97430;;;8.4;77.5
68489;BME280;55481;48.764;8.936;2022-10-31T04:53:12;97430;;;8.4;77.5
68489;BME280;55481;48.764;8.936;2022-10-31T04:55:42;97430;;;8.3;77.5
68489;BME280;55481;48.764;8.936;2022-10-31T04:58:14;97420;;;8.3;77.5
68489;BME280;55481;48.764;8.936;2022-10-31T05:00:37;97420;;;8.4;77.5
68489;BME280;55481;48.764;8.936;2022-10-31T05:03:08;97410;;;8.4;77.5
68489;BME280;55481;48.764;8.936;2022-10-31T05:13:11;97410;;;8.1;77.5
68489;BME280;55481;48.764;8.936;2022-10-31T05:18:13;97410;;;8;78
68489;BME280;55481;48.764;8.936;2022-10-31T05:20:43;97420;;;8.1;77.5
68489;BME280;55481;48.764;8.936;2022-10-31T05:25:57;97410;;;7.9;78
68489;BME280;55481;48.764;8.936;2022-10-31T05:28:28;97410;;;7.9;78
68489;BME280;55481;48.764;8.936;2022-10-31T05:30:52;97410;;;7.9;78
68489;BME280;55481;48.764;8.936;2022-10-31T05:33:24;97410;;;7.9;77.5
68489;BME280;55481;48.764;8.936;2022-10-31T05:35:59;97420;;;7.9;77.5
68489;BME280;55481;48.764;8.936;2022-10-31T05:38:32;97410;;;8;77.5
68489;BME280;55481;48.764;8.936;2022-10-31T05:41:02;97410;;;8.2;77
68489;BME280;55481;48.764;8.936;2022-10-31T05:43:27;97400;;;8.3;76.5
68489;BME280;55481;48.764;8.936;2022-10-31T05:45:58;97400;;;8.2;127.5
68489;BME280;55481;48.764;8.936;2022-10-31T05:48:29;97400;;;8;77.5
68489;BME280;55481;48.764;8.936;2022-10-31T05:53:31;97400;;;8.1;77.5
68489;BME280;55481;48.764;8.936;2022-10-31T05:56:02;97400;;;8.2;77
68489;BME280;55481;48.764;8.936;2022-10-31T05:58:32;97400;;;8.2;77
68489;BME280;55481;48.764;8.936;2022-10-31T06:01:04;97400;;;8.1;77
68489;BME280;55481;48.764;8.936;2022-10-31T06:03:41;97400;;;8.2;77
68489;BME280;55481;48.764;8.936;2022-10-31T06:08:39;97400;;;8.2;77
68489;BME280;55481;48.764;8.936;2022-10-31T06:11:08;97400;;;8;77.5
68489;BME280;55481;48.764;8.936;2022-10-31T06:13:38;97400;;;8;77.5
68489;BME280;55481;48.764;8.936;2022-10-31T06:16:10;97400;;;8.1;77
68489;BME280;55481;48.764;8.936;2022-10-31T06:18:40;97400;;;8.1;77
68489;BME280;55481;48.764;8.936;2022-10-31T06:21:12;97400;;;7.9;77.5
68489;BME280;55481;48.764;8.936;2022-10-31T06:23:43;97400;;;7.9;77.5
68489;BME280;55481;48.764;8.936;2022-10-31T06:26:13;97390;;;8;77.5
68489;BME280;55481;48.764;8.936;2022-10-31T06:28:44;97390;;;8.1;77.5
68489;BME280;55481;48.764;8.936;2022-10-31T06:31:19;97390;;;8.2;77
68489;BME280;55481;48.764;8.936;2022-10-31T06:33:54;97390;;;8.2;77
68489;BME280;55481;48.764;8.936;2022-10-31T06:38:49;97390;;;8.4;76.5
68489;BME280;55481;48.764;8.936;2022-10-31T06:41:19;97390;;;8.3;77
68489;BME280;55481;48.764;8.936;2022-10-31T06:43:50;97390;;;8.4;77
68489;BME280;55481;48.764;8.936;2022-10-31T06:46:21;97380;;;8.6;76.5
68489;BME280;55481;48.764;8.936;2022-10-31T06:48:59;97380;;;8.6;76.5
68489;BME280;55481;48.764;8.936;2022-10-31T06:51:23;97380;;;8.7;76
68489;BME280;55481;48.764;8.936;2022-10-31T06:53:53;97380;;;8.8;76
68489;BME280;55481;48.764;8.936;2022-10-31T06:56:27;97390;;;8.9;75.5
68489;BME280;55481;48.764;8.936;2022-10-31T06:58:55;97390;;;9;76
68489;BME280;55481;48.764;8.936;2022-10-31T07:09:18;97400;;;9.1;76
68489;BME280;55481;48.764;8.936;2022-10-31T07:11:35;97400;;;9.1;76
68489;BME280;55481;48.764;8.936;2022-10-31T07:14:05;97390;;;9.1;76
68489;BME280;55481;48.764;8.936;2022-10-31T07:19:00;97390;;;9.3;75.5
68489;BME280;55481;48.764;8.936;2022-10-31T07:21:30;97390;;;9.5;75.5
68489;BME280;55481;48.764;8.936;2022-10-31T07:24:01;97390;;;9.5;75.5
68489;BME280;55481;48.764;8.936;2022-10-31T07:26:39;97400;;;9.5;75
68489;BME280;55481;48.764;8.936;2022-10-31T07:34:16;97400;;;9.6;75.5
68489;BME280;55481;48.764;8.936;2022-10-31T07:36:53;97400;;;9.6;75.5
68489;BME280;55481;48.764;8.936;2022-10-31T07:41:34;97400;;;9.7;75.5
68489;BME280;55481;48.764;8.936;2022-10-31T07:44:06;97410;;;9.7;76
68489;BME280;55481;48.764;8.936;2022-10-31T07:46:37;97400;;;9.9;75.5
68489;BME280;55481;48.764;8.936;2022-10-31T07:49:08;97400;;;9.6;76
68489;BME280;55481;48.764;8.936;2022-10-31T07:51:38;97400;;;9.4;76.5
68489;BME280;55481;48.764;8.936;2022-10-31T07:54:09;97400;;;9.4;76.5
68489;BME280;55481;48.764;8.936;2022-10-31T07:56:43;97400;;;9.5;76.5
68489;BME280;55481;48.764;8.936;2022-10-31T07:59:18;97400;;;9.6;76
68489;BME280;55481;48.764;8.936;2022-10-31T08:04:13;97390;;;9.8;76
68489;BME280;55481;48.764;8.936;2022-10-31T08:06:44;97400;;;9.9;76
68489;BME280;55481;48.764;8.936;2022-10-31T08:09:20;97400;;;10;75.5
68489;BME280;55481;48.764;8.936;2022-10-31T08:14:23;97390;;;10.1;75.5
68489;BME280;55481;48.764;8.936;2022-10-31T08:16:53;97390;;;10.2;75.5
68489;BME280;55481;48.764;8.936;2022-10-31T08:21:51;97380;;;10.8;74.5
68489;BME280;55481;48.764;8.936;2022-10-31T08:24:25;97380;;;11.1;73.5
68489;BME280;55481;48.764;8.936;2022-10-31T08:26:58;97370;;;11;74
68489;BME280;55481;48.764;8.936;2022-10-31T08:29:27;97370;;;11;74
68489;BME280;55481;48.764;8.936;2022-10-31T08:34:42;97370;;;11.1;74.5
68489;BME280;55481;48.764;8.936;2022-10-31T08:36:59;97360;;;11.1;74.5
68489;BME280;55481;48.764;8.936;2022-10-31T08:39:29;97360;;;11.3;74.5
68489;BME280;55481;48.764;8.936;2022-10-31T08:42:02;97360;;;11.3;74.5
68489;BME280;55481;48.764;8.936;2022-10-31T08:44:37;97360;;;11.3;74.5
68489;BME280;55481;48.764;8.936;2022-10-31T08:46:54;97360;;;11.3;74.5
68489;BME280;55481;48.764;8.936;2022-10-31T08:49:25;97360;;;11.4;74.5
68489;BME280;55481;48.764;8.936;2022-10-31T08:54:27;97350;;;11.9;73.5
68489;BME280;55481;48.764;8.936;2022-10-31T08:56:58;97350;;;12.1;73
68489;BME280;55481;48.764;8.936;2022-10-31T08:59:29;97350;;;12.3;73
68489;BME280;55481;48.764;8.936;2022-10-31T09:02:00;97340;;;12.6;72.5
68489;BME280;55481;48.764;8.936;2022-10-31T09:04:31;97340;;;12.7;72.5
68489;BME280;55481;48.764;8.936;2022-10-31T09:07:02;97340;;;12.8;72.5
68489;BME280;55481;48.764;8.936;2022-10-31T09:12:03;97330;;;13;72.5
68489;BME280;55481;48.764;8.936;2022-10-31T09:14:35;97330;;;13.2;72
68489;BME280;55481;48.764;8.936;2022-10-31T09:17:12;97320;;;13.4;72
68489;BME280;55481;48.764;8.936;2022-10-31T09:22:07;97320;;;13.6;72
68489;BME280;55481;48.764;8.936;2022-10-31T09:27:16;97320;;;13.9;71.5
68489;BME280;55481;48.764;8.936;2022-10-31T09:29:49;97320;;;14.1;71.5
68489;BME280;55481;48.764;8.936;2022-10-31T09:32:17;97320;;;14.3;71
68489;BME280;55481;48.764;8.936;2022-10-31T09:37:10;97310;;;14.8;70.5
68489;BME280;55481;48.764;8.936;2022-10-31T09:39:42;97310;;;14.9;70.5
68489;BME280;55481;48.764;8.936;2022-10-31T09:42:22;97310;;;15;70.5
68489;BME280;55481;48.764;8.936;2022-10-31T09:45:01;97310;;;14.9;71
68489;BME280;55481;48.764;8.936;2022-10-31T09:48:27;97310;;;15.1;71
68489;BME280;55481;48.764;8.936;2022-10-31T09:49:50;97310;;;15.3;70.5
68489;BME280;55481;48.764;8.936;2022-10-31T09:52:26;97320;;;15.3;70.5
68489;BME280;55481;48.764;8.936;2022-10-31T09:59:55;97310;;;15.6;70.5
68489;BME280;55481;48.764;8.936;2022-10-31T10:02:30;97300;;;15.8;70
68489;BME280;55481;48.764;8.936;2022-10-31T10:04:57;97300;;;15.8;70.5
68489;BME280;55481;48.764;8.936;2022-10-31T10:08:32;97300;;;16;70
68489;BME280;55481;48.764;8.936;2022-10-31T10:09:56;97300;;;16.2;70
68489;BME280;55481;48.764;8.936;2022-10-31T10:12:37;97290;;;16.3;70
68489;BME280;55481;48.764;8.936;2022-10-31T10:17:31;97290;;;16.6;69.5
68489;BME280;55481;48.764;8.936;2022-10-31T10:25:00;97290;;;16.2;71
68489;BME280;55481;48.764;8.936;2022-10-31T10:27:29;97280;;;16.4;70.5
68489;BME280;55481;48.764;8.936;2022-10-31T10:30:04;97280;;;16.6;70.5
68489;BME280;55481;48.764;8.936;2022-10-31T10:32:27;97280;;;16.8;70
68489;BME280;55481;48.764;8.936;2022-10-31T10:34:59;97280;;;17;69.5
68489;BME280;55481;48.764;8.936;2022-10-31T10:37:29;97280;;;16.9;70
68489;BME280;55481;48.764;8.936;2022-10-31T10:40:08;97280;;;16.9;70.5
68489;BME280;55481;48.764;8.936;2022-10-31T10:42:35;97280;;;17;70.5
68489;BME280;55481;48.764;8.936;2022-10-31T10:47:32;97270;;;17.5;69.5
68489;BME280;55481;48.764;8.936;2022-10-31T10:50:00;97270;;;17.6;69
68489;BME280;55481;48.764;8.936;2022-10-31T10:55:24;97260;;;17.4;70
68489;BME280;55481;48.764;8.936;2022-10-31T10:57:48;97250;;;17.4;70
68489;BME280;55481;48.764;8.936;2022-10-31T11:02:32;97250;;;17.8;69.5
68489;BME280;55481;48.764;8.936;2022-10-31T11:05:03;97240;;;17.9;69
68489;BME280;55481;48.764;8.936;2022-10-31T11:07:38;97240;;;18;69
68489;BME280;55481;48.764;8.936;2022-10-31T11:10:05;97230;;;17.9;69
68489;BME280;55481;48.764;8.936;2022-10-31T11:12:36;97230;;;17.9;69.5
68489;BME280;55481;48.764;8.936;2022-10-31T11:17:47;97220;;;18.1;69
68489;BME280;55481;48.764;8.936;2022-10-31T11:22:44;97220;;;18;69.5
68489;BME280;55481;48.764;8.936;2022-10-31T11:25:19;97220;;;18;69.5
68489;BME280;55481;48.764;8.936;2022-10-31T11:27:43;97220;;;18.2;69.5
68489;BME280;55481;48.764;8.936;2022-10-31T11:30:13;97210;;;18.1;69.5
68489;BME280;55481;48.764;8.936;2022-10-31T11:32:48;97210;;;18.3;69.5
68489;BME280;55481;48.764;8.936;2022-10-31T11:35:16;97210;;;18.3;69
68489;BME280;55481;48.764;8.936;2022-10-31T11:37:46;97200;;;18.4;69
68489;BME280;55481;48.764;8.936;2022-10-31T11:40:21;97200;;;18.3;69
68489;BME280;55481;48.764;8.936;2022-10-31T11:42:49;97210;;;18.2;69.5
68489;BME280;55481;48.764;8.936;2022-10-31T11:47:50;97200;;;18.1;69.5
68489;BME280;55481;48.764;8.936;2022-10-31T11:50:24;97200;;;18.1;69.5
68489;BME280;55481;48.764;8.936;2022-10-31T11:53:14;97200;;;18;69.5
68489;BME280;55481;48.764;8.936;2022-10-31T11:55:30;97200;;;18.1;69.5
68489;BME280;55481;48.764;8.936;2022-10-31T11:57:59;97190;;;18.1;69
68489;BME280;55481;48.764;8.936;2022-10-31T12:00:37;97180;;;18.3;69
68489;BME280;55481;48.764;8.936;2022-10-31T12:04:12;97180;;;18.4;68.5
68489;BME280;55481;48.764;8.936;2022-10-31T12:05:29;97170;;;18.6;68
68489;BME280;55481;48.764;8.936;2022-10-31T12:08:00;97170;;;18.7;68
68489;BME280;55481;48.764;8.936;2022-10-31T12:12:57;97160;;;18.8;68
68489;BME280;55481;48.764;8.936;2022-10-31T12:15:33;97160;;;18.9;68
68489;BME280;55481;48.764;8.936;2022-10-31T12:18:00;97160;;;18.8;68.5
68489;BME280;55481;48.764;8.936;2022-10-31T12:20:32;97150;;;18.7;68.5
68489;BME280;55481;48.764;8.936;2022-10-31T12:29:00;97150;;;18.5;69.5
68489;BME280;55481;48.764;8.936;2022-10-31T12:30:27;97140;;;18.4;69.5
68489;BME280;55481;48.764;8.936;2022-10-31T12:33:00;97140;;;18.2;70
68489;BME280;55481;48.764;8.936;2022-10-31T12:35:28;97140;;;18.1;70
68489;BME280;55481;48.764;8.936;2022-10-31T12:40:38;97130;;;17.9;70.5
68489;BME280;55481;48.764;8.936;2022-10-31T12:43:11;97130;;;17.9;70.5
68489;BME280;55481;48.764;8.936;2022-10-31T12:45:45;97130;;;17.9;70.5
68489;BME280;55481;48.764;8.936;2022-10-31T12:48:17;97120;;;17.9;70.5
68489;BME280;55481;48.764;8.936;2022-10-31T12:58:03;97090;;;18.1;70
68489;BME280;55481;48.764;8.936;2022-10-31T13:00:32;97080;;;18.1;70
68489;BME280;55481;48.764;8.936;2022-10-31T13:03:09;97080;;;17.9;70
68489;BME280;55481;48.764;8.936;2022-10-31T13:08:12;97090;;;17.8;70.5
68489;BME280;55481;48.764;8.936;2022-10-31T13:10:43;97090;;;17.7;70.5
68489;BME280;55481;48.764;8.936;2022-10-31T13:15:53;97080;;;17.9;70
68489;BME280;55481;48.764;8.936;2022-10-31T13:18:11;97070;;;18;70
68489;BME280;55481;48.764;8.936;2022-10-31T13:25:42;97080;;;18.8;68.5
68489;BME280;55481;48.764;8.936;2022-10-31T13:28:14;97080;;;19.2;67.5
68489;BME280;55481;48.764;8.936;2022-10-31T13:30:41;97070;;;19.4;67.5
68489;BME280;55481;48.764;8.936;2022-10-31T13:33:14;97070;;;19.8;67
68489;BME280;55481;48.764;8.936;2022-10-31T13:38:22;97060;;;19.5;67.5
68489;BME280;55481;48.764;8.936;2022-10-31T13:40:55;97060;;;19.3;68
68489;BME280;55481;48.764;8.936;2022-10-31T13:43:31;97060;;;19;69
68489;BME280;55481;48.764;8.936;2022-10-31T13:48:18;97040;;;19.1;68.5
68489;BME280;55481;48.764;8.936;2022-10-31T13:50:56;97040;;;18.9;68.5
68489;BME280;55481;48.764;8.936;2022-10-31T13:53:20;97040;;;18.8;69
68489;BME280;55481;48.764;8.936;2022-10-31T14:01:13;97040;;;18.5;69.5
68489;BME280;55481;48.764;8.936;2022-10-31T14:03:35;97040;;;18.5;69.5
68489;BME280;55481;48.764;8.936;2022-10-31T14:06:08;97040;;;18.5;69.5
68489;BME280;55481;48.764;8.936;2022-10-31T14:08:35;97040;;;18.6;69.5
68489;BME280;55481;48.764;8.936;2022-10-31T14:11:04;97040;;;18.7;69
68489;BME280;55481;48.764;8.936;2022-10-31T14:13:43;97030;;;18.7;69.5
68489;BME280;55481;48.764;8.936;2022-10-31T14:16:18;97030;;;18.6;69.5
68489;BME280;55481;48.764;8.936;2022-10-31T14:20:58;97020;;;18.5;70
68489;BME280;55481;48.764;8.936;2022-10-31T14:23:32;97020;;;18.5;69.5
68489;BME280;55481;48.764;8.936;2022-10-31T14:26:32;97020;;;18.6;69.5
68489;BME280;55481;48.764;8.936;2022-10-31T14:28:31;97020;;;18.9;69
68489;BME280;55481;48.764;8.936;2022-10-31T14:30:56;97020;;;18.9;69
68489;BME280;55481;48.764;8.936;2022-10-31T14:41:05;97020;;;18.6;69.5
68489;BME280;55481;48.764;8.936;2022-10-31T14:43:36;97010;;;18.5;70
68489;BME280;55481;48.764;8.936;2022-10-31T14:48:48;97010;;;18.4;70
68489;BME280;55481;48.764;8.936;2022-10-31T14:51:18;97010;;;18.3;70
68489;BME280;55481;48.764;8.936;2022-10-31T14:56:17;97010;;;18.1;70
68489;BME280;55481;48.764;8.936;2022-10-31T14:58:40;97010;;;17.9;70.5
68489;BME280;55481;48.764;8.936;2022-10-31T15:01:19;97010;;;17.8;71
68489;BME280;55481;48.764;8.936;2022-10-31T15:03:42;97020;;;17.7;71
68489;BME280;55481;48.764;8.936;2022-10-31T15:11:26;97040;;;17.1;72
68489;BME280;55481;48.764;8.936;2022-10-31T15:16:20;97030;;;16.9;72
68489;BME280;55481;48.764;8.936;2022-10-31T15:18:57;97020;;;16.9;72
68489;BME280;55481;48.764;8.936;2022-10-31T15:21:19;97010;;;16.9;72
68489;BME280;55481;48.764;8.936;2022-10-31T15:23:57;97000;;;16.9;71.5
68489;BME280;55481;48.764;8.936;2022-10-31T15:28:43;97000;;;16.8;71.5
68489;BME280;55481;48.764;8.936;2022-10-31T15:31:21;97000;;;16.7;72
68489;BME280;55481;48.764;8.936;2022-10-31T15:36:20;97020;;;16.5;72
68489;BME280;55481;48.764;8.936;2022-10-31T15:41:28;97010;;;16.3;72
68489;BME280;55481;48.764;8.936;2022-10-31T15:43:54;97000;;;16.2;72.5
68489;BME280;55481;48.764;8.936;2022-10-31T15:48:48;96990;;;16.1;72.5
68489;BME280;55481;48.764;8.936;2022-10-31T15:51:27;96990;;;16;72.5
68489;BME280;55481;48.764;8.936;2022-10-31T15:53:50;96990;;;15.9;72.5
68489;BME280;55481;48.764;8.936;2022-10-31T15:56:29;96990;;;15.8;72.5
68489;BME280;55481;48.764;8.936;2022-10-31T15:58:59;96990;;;15.7;72.5
68489;BME280;55481;48.764;8.936;2022-10-31T16:06:31;96990;;;15.2;73.5
68489;BME280;55481;48.764;8.936;2022-10-31T16:09:00;96980;;;15.1;73.5
68489;BME280;55481;48.764;8.936;2022-10-31T16:13:56;96960;;;14.9;74
68489;BME280;55481;48.764;8.936;2022-10-31T16:16:26;96960;;;14.8;74
68489;BME280;55481;48.764;8.936;2022-10-31T16:18:56;96960;;;14.7;74
68489;BME280;55481;48.764;8.936;2022-10-31T16:23:53;96970;;;14.3;74.5
68489;BME280;55481;48.764;8.936;2022-10-31T16:31:25;96970;;;14.3;74
68489;BME280;55481;48.764;8.936;2022-10-31T16:34:01;96970;;;14.2;74
68489;BME280;55481;48.764;8.936;2022-10-31T16:36:29;96960;;;14.1;74.5
68489;BME280;55481;48.764;8.936;2022-10-31T16:38:56;96960;;;14;74.5
68489;BME280;55481;48.764;8.936;2022-10-31T16:44:06;96970;;;13.9;74.5
68489;BME280;55481;48.764;8.936;2022-10-31T16:46:35;96970;;;13.9;74.5
68489;BME280;55481;48.764;8.936;2022-10-31T16:51:29;96960;;;13.8;74.5
68489;BME280;55481;48.764;8.936;2022-10-31T16:54:01;96970;;;13.8;74.5
68489;BME280;55481;48.764;8.936;2022-10-31T17:04:04;96970;;;13.7;74
68489;BME280;55481;48.764;8.936;2022-10-31T17:06:34;96970;;;13.6;74.5
68489;BME280;55481;48.764;8.936;2022-10-31T17:11:44;96990;;;13.6;74.5
68489;BME280;55481;48.764;8.936;2022-10-31T17:14:20;96990;;;13.6;74
68489;BME280;55481;48.764;8.936;2022-10-31T17:16:44;96990;;;13.5;74
68489;BME280;55481;48.764;8.936;2022-10-31T17:19:14;96990;;;13.4;74.5
68489;BME280;55481;48.764;8.936;2022-10-31T17:21:52;97000;;;13.3;74.5
68489;BME280;55481;48.764;8.936;2022-10-31T17:24:23;97000;;;13.2;74.5
68489;BME280;55481;48.764;8.936;2022-10-31T17:26:59;96990;;;13.3;74.5
68489;BME280;55481;48.764;8.936;2022-10-31T17:31:47;96970;;;13.2;74.5
68489;BME280;55481;48.764;8.936;2022-10-31T17:34:18;96970;;;13.2;74.5
68489;BME280;55481;48.764;8.936;2022-10-31T17:36:50;96970;;;13.2;74.5
68489;BME280;55481;48.764;8.936;2022-10-31T17:39:13;96970;;;13.2;74.5
68489;BME280;55481;48.764;8.936;2022-10-31T17:41:44;96970;;;13.2;74.5
68489;BME280;55481;48.764;8.936;2022-10-31T17:51:46;96970;;;12.9;75
68489;BME280;55481;48.764;8.936;2022-10-31T17:54:17;96960;;;12.8;75
68489;BME280;55481;48.764;8.936;2022-10-31T17:59:32;96970;;;12.7;75
68489;BME280;55481;48.764;8.936;2022-10-31T18:02:02;96970;;;12.7;75
68489;BME280;55481;48.764;8.936;2022-10-31T18:06:56;96960;;;12.7;75
68489;BME280;55481;48.764;8.936;2022-10-31T18:09:26;96960;;;12.6;75
68489;BME280;55481;48.764;8.936;2022-10-31T18:11:58;96940;;;12.6;75
68489;BME280;55481;48.764;8.936;2022-10-31T18:14:28;96930;;;12.6;75.5
68489;BME280;55481;48.764;8.936;2022-10-31T18:24:37;96930;;;12.5;75
68489;BME280;55481;48.764;8.936;2022-10-31T18:29:37;96920;;;12.5;75
68489;BME280;55481;48.764;8.936;2022-10-31T18:32:14;96920;;;12.5;75.5
68489;BME280;55481;48.764;8.936;2022-10-31T18:37:02;96910;;;12.8;74.5
68489;BME280;55481;48.764;8.936;2022-10-31T18:39:33;96920;;;12.9;74.5
68489;BME280;55481;48.764;8.936;2022-10-31T18:42:04;96910;;;12.9;74.5
68489;BME280;55481;48.764;8.936;2022-10-31T18:44:41;96910;;;12.8;74.5
68489;BME280;55481;48.764;8.936;2022-10-31T18:52:14;96930;;;12.5;75.5
68489;BME280;55481;48.764;8.936;2022-10-31T18:54:44;96930;;;12.5;75
68489;BME280;55481;48.764;8.936;2022-10-31T18:57:13;96950;;;12.4;75.5
68489;BME280;55481;48.764;8.936;2022-10-31T18:59:44;96970;;;12.3;75.5
68489;BME280;55481;48.764;8.936;2022-10-31T19:04:38;96980;;;12.5;75
68489;BME280;55481;48.764;8.936;2022-10-31T19:07:09;96960;;;12.8;74
68489;BME280;55481;48.764;8.936;2022-10-31T19:09:40;96960;;;12.9;74
68489;BME280;55481;48.764;8.936;2022-10-31T19:12:18;96950;;;13;74
68489;BME280;55481;48.764;8.936;2022-10-31T19:14:35;96960;;;12.9;74
68489;BME280;55481;48.764;8.936;2022-10-31T19:17:06;96970;;;12.9;74.5
68489;BME280;55481;48.764;8.936;2022-10-31T19:19:37;96960;;;13;74
68489;BME280;55481;48.764;8.936;2022-10-31T19:22:08;96960;;;12.9;74.5
68489;BME280;55481;48.764;8.936;2022-10-31T19:24:38;96970;;;12.9;74.5
68489;BME280;55481;48.764;8.936;2022-10-31T19:27:10;96980;;;12.9;74.5
68489;BME280;55481;48.764;8.936;2022-10-31T19:29:40;96960;;;13;74
68489;BME280;55481;48.764;8.936;2022-10-31T19:32:11;96960;;;12.9;74